Time;durP1;ratioP1;P1;durP2;ratioP2;P2;SDS_P1;SDS_P2;PMS_P1;PMS_P2;Temp;Humidity;BMP_temperature;BMP_pressure;BME280_temperature;BME280_humidity;BME280_pressure;Samples;Min_cycle;Max_cycle;Signal;HPM_P1;HPM_P2
2022/02/18 00:00:14;;;;;;;;;;;12.50;99.90;;;;;;5075315;28;19913;-78
2022/02/18 00:02:40;;;;;;;;;;;12.50;99.90;;;;;;5075145;28;19970;-78
2022/02/18 00:05:06;;;;;;;;;;;12.40;99.90;;;;;;5075128;28;20360;-78
2022/02/18 00:07:31;;;;;;;;;;;12.40;99.90;;;;;;5057052;28;19912;-78
2022/02/18 00:09:57;;;;;;;;;;;12.40;99.90;;;;;;5075020;28;19909;-78
2022/02/18 00:12:22;;;;;;;;;;;12.30;99.90;;;;;;5056986;28;19936;-78
2022/02/18 00:14:48;;;;;;;;;;;12.30;99.90;;;;;;5074886;28;19909;-79
2022/02/18 00:17:13;;;;;;;;;;;12.30;99.90;;;;;;5053501;28;20019;-78
2022/02/18 00:19:39;;;;;;;;;;;12.30;99.90;;;;;;5054829;28;19917;-78
2022/02/18 00:22:05;;;;;;;;;;;12.30;99.90;;;;;;5054998;28;20276;-78
2022/02/18 00:24:30;;;;;;;;;;;12.30;99.90;;;;;;5054722;28;19908;-78
2022/02/18 00:26:56;;;;;;;;;;;12.30;99.90;;;;;;5054689;28;19913;-79
2022/02/18 00:29:22;;;;;;;;;;;12.30;99.90;;;;;;5054718;28;19909;-79
2022/02/18 00:31:48;;;;;;;;;;;12.20;99.90;;;;;;5054650;28;20389;-78
2022/02/18 00:34:14;;;;;;;;;;;12.30;99.90;;;;;;5054353;28;19915;-78
2022/02/18 00:36:39;;;;;;;;;;;12.30;99.90;;;;;;5054539;28;20003;-78
2022/02/18 00:39:05;;;;;;;;;;;12.20;99.90;;;;;;5054525;28;19909;-78
2022/02/18 00:41:30;;;;;;;;;;;12.10;99.90;;;;;;5054492;28;19916;-78
2022/02/18 00:43:56;;;;;;;;;;;12.10;99.90;;;;;;5054355;28;19913;-78
2022/02/18 00:46:22;;;;;;;;;;;12.00;99.90;;;;;;5054403;28;19908;-79
2022/02/18 00:48:48;;;;;;;;;;;12.00;99.90;;;;;;5054362;28;19959;-78
2022/02/18 00:51:13;;;;;;;;;;;12.00;99.90;;;;;;5054292;28;19916;-78
2022/02/18 00:53:39;;;;;;;;;;;12.10;99.90;;;;;;5054154;28;19958;-78
2022/02/18 00:56:05;;;;;;;;;;;12.10;99.90;;;;;;5054430;28;19931;-78
2022/02/18 00:58:30;;;;;;;;;;;12.10;99.90;;;;;;5054304;28;19916;-78
2022/02/18 01:00:56;;;;;;;;;;;12.00;99.90;;;;;;5054100;28;19974;-78
2022/02/18 01:03:21;;;;;;;;;;;12.00;99.90;;;;;;5054223;28;19909;-78
2022/02/18 01:05:49;;;;;;;;;;;11.90;99.90;;;;;;5054299;28;19908;-78
2022/02/18 01:08:15;;;;;;;;;;;12.00;99.90;;;;;;5053910;28;19913;-78
2022/02/18 01:10:41;;;;;;;;;;;12.00;99.90;;;;;;5053935;28;19915;-78
2022/02/18 01:13:07;;;;;;;;;;;12.00;99.90;;;;;;5054194;28;19995;-78
2022/02/18 01:15:32;;;;;;;;;;;11.90;99.90;;;;;;5054050;28;20285;-78
2022/02/18 01:17:58;;;;;;;;;;;11.90;99.90;;;;;;5071888;28;19928;-78
2022/02/18 01:20:24;;;;;;;;;;;11.90;99.90;;;;;;5074018;28;20351;-78
2022/02/18 01:22:49;;;;;;;;;;;11.90;99.90;;;;;;5055827;28;19912;-78
2022/02/18 01:25:15;;;;;;;;;;;11.90;99.90;;;;;;5055766;28;19908;-77
2022/02/18 01:27:41;;;;;;;;;;;11.90;99.90;;;;;;5073668;28;19912;-78
2022/02/18 01:30:07;;;;;;;;;;;12.00;99.90;;;;;;5055737;28;20347;-77
2022/02/18 01:32:33;;;;;;;;;;;12.00;99.90;;;;;;5073685;28;19948;-78
2022/02/18 01:34:58;;;;;;;;;;;12.00;99.90;;;;;;5073668;28;19947;-78
2022/02/18 01:37:24;;;;;;;;;;;12.00;99.90;;;;;;5073635;28;20387;-78
2022/02/18 01:39:50;;;;;;;;;;;12.00;99.90;;;;;;5074007;28;19919;-78
2022/02/18 01:42:16;;;;;;;;;;;12.00;99.90;;;;;;5073589;28;19909;-78
2022/02/18 01:44:48;;;;;;;;;;;11.90;99.90;;;;;;5074502;28;19958;-79
2022/02/18 01:47:16;;;;;;;;;;;11.90;99.90;;;;;;5080282;28;20319;-78
2022/02/18 01:49:42;;;;;;;;;;;11.90;99.90;;;;;;5080187;28;19969;-78
2022/02/18 01:52:08;;;;;;;;;;;11.90;99.90;;;;;;5080133;28;20384;-78
2022/02/18 01:54:33;;;;;;;;;;;11.90;99.90;;;;;;5080224;28;19990;-79
2022/02/18 01:56:59;;;;;;;;;;;11.90;99.90;;;;;;5062103;28;19999;-78
2022/02/18 01:59:29;;;;;;;;;;;11.90;99.90;;;;;;5080082;28;19908;-79
2022/02/18 02:01:55;;;;;;;;;;;11.90;99.90;;;;;;5080170;28;19919;-78
2022/02/18 02:04:21;;;;;;;;;;;11.90;99.90;;;;;;5080068;28;19909;-79
2022/02/18 02:06:47;;;;;;;;;;;11.90;99.90;;;;;;5080144;28;20060;-78
2022/02/18 02:09:13;;;;;;;;;;;11.90;99.90;;;;;;5080006;28;19915;-78
2022/02/18 02:11:38;;;;;;;;;;;12.00;99.90;;;;;;5079974;28;19962;-79
2022/02/18 02:14:05;;;;;;;;;;;12.00;99.90;;;;;;5080004;28;19908;-78
2022/02/18 02:16:30;;;;;;;;;;;12.00;99.90;;;;;;5058374;28;20316;-78
2022/02/18 02:18:56;;;;;;;;;;;12.00;99.90;;;;;;5060071;28;19908;-78
2022/02/18 02:21:23;;;;;;;;;;;12.00;99.90;;;;;;5059858;28;19909;-79
2022/02/18 02:23:49;;;;;;;;;;;12.00;99.90;;;;;;5059886;28;19931;-79
2022/02/18 02:26:15;;;;;;;;;;;11.90;99.90;;;;;;5059812;28;19908;-78
2022/02/18 02:28:41;;;;;;;;;;;12.00;99.90;;;;;;5059594;28;19909;-79
2022/02/18 02:31:06;;;;;;;;;;;12.00;99.90;;;;;;5060010;28;20443;-79
2022/02/18 02:33:33;;;;;;;;;;;11.90;99.90;;;;;;5059919;28;19909;-79
2022/02/18 02:35:59;;;;;;;;;;;12.00;99.90;;;;;;5060009;28;19912;-78
2022/02/18 02:38:24;;;;;;;;;;;12.00;99.90;;;;;;5059701;28;19954;-78
2022/02/18 02:40:50;;;;;;;;;;;12.00;99.90;;;;;;5059732;28;20323;-78
2022/02/18 02:43:16;;;;;;;;;;;12.10;99.90;;;;;;5059854;28;19912;-79
2022/02/18 02:45:42;;;;;;;;;;;12.10;99.90;;;;;;5059615;28;19909;-78
2022/02/18 02:48:07;;;;;;;;;;;12.10;99.90;;;;;;5059572;28;19916;-79
2022/02/18 02:50:33;;;;;;;;;;;12.10;99.90;;;;;;5058267;28;19909;-78
2022/02/18 02:52:58;;;;;;;;;;;12.20;99.90;;;;;;5059549;28;19909;-78
2022/02/18 02:55:24;;;;;;;;;;;12.10;99.90;;;;;;5058241;28;19909;-78
2022/02/18 02:57:50;;;;;;;;;;;12.10;99.90;;;;;;5057072;28;19912;-78
2022/02/18 03:00:17;;;;;;;;;;;12.30;99.90;;;;;;5055052;28;19916;-78
2022/02/18 03:02:42;;;;;;;;;;;12.20;99.90;;;;;;5056345;28;19916;-78
2022/02/18 03:05:09;;;;;;;;;;;12.30;99.90;;;;;;5056552;28;19908;-78
2022/02/18 03:07:34;;;;;;;;;;;12.30;99.90;;;;;;5056156;28;19912;-78
2022/02/18 03:10:00;;;;;;;;;;;12.30;99.90;;;;;;5056425;28;20391;-78
2022/02/18 03:12:26;;;;;;;;;;;12.30;99.90;;;;;;5056314;28;19948;-78
2022/02/18 03:14:51;;;;;;;;;;;12.30;99.90;;;;;;5056118;28;20269;-78
2022/02/18 03:17:17;;;;;;;;;;;12.30;99.90;;;;;;5068861;28;19928;-78
2022/02/18 03:19:43;;;;;;;;;;;12.30;99.90;;;;;;5076016;28;19908;-78
2022/02/18 03:22:08;;;;;;;;;;;12.20;99.90;;;;;;5075978;28;19971;-79
2022/02/18 03:24:34;;;;;;;;;;;12.10;99.90;;;;;;5076038;28;20334;-78
2022/02/18 03:27:00;;;;;;;;;;;12.10;99.90;;;;;;5075852;28;20380;-78
2022/02/18 03:29:26;;;;;;;;;;;12.00;99.90;;;;;;5075858;28;19909;-78
2022/02/18 03:31:52;;;;;;;;;;;12.10;99.90;;;;;;5076147;28;19909;-78
2022/02/18 03:34:17;;;;;;;;;;;12.00;99.90;;;;;;5075807;28;19909;-78
2022/02/18 03:36:43;;;;;;;;;;;12.00;99.90;;;;;;5075710;28;19930;-78
2022/02/18 03:39:11;;;;;;;;;;;11.90;99.90;;;;;;5075643;28;20269;-78
2022/02/18 03:41:37;;;;;;;;;;;11.90;99.90;;;;;;5075961;28;19909;-78
2022/02/18 03:44:03;;;;;;;;;;;11.90;99.90;;;;;;5057637;28;19916;-78
2022/02/18 03:46:28;;;;;;;;;;;11.80;99.90;;;;;;5057425;28;20436;-78
2022/02/18 03:48:54;;;;;;;;;;;11.80;99.90;;;;;;5075478;28;20008;-78
2022/02/18 03:51:19;;;;;;;;;;;11.80;99.90;;;;;;5075879;28;19935;-78
2022/02/18 03:53:48;;;;;;;;;;;11.70;99.90;;;;;;5075667;28;19908;-78
2022/02/18 03:56:14;;;;;;;;;;;11.70;99.90;;;;;;5075295;28;19934;-78
2022/02/18 03:58:40;;;;;;;;;;;11.70;99.90;;;;;;5057326;28;19962;-78
2022/02/18 04:01:06;;;;;;;;;;;11.80;99.90;;;;;;5075624;28;19909;-78
2022/02/18 04:03:31;;;;;;;;;;;11.80;99.90;;;;;;5075295;28;19916;-79
2022/02/18 04:05:57;;;;;;;;;;;11.80;99.90;;;;;;5075092;28;19955;-78
2022/02/18 04:08:22;;;;;;;;;;;11.70;99.90;;;;;;5056446;28;19938;-78
2022/02/18 04:10:48;;;;;;;;;;;11.70;99.90;;;;;;5075240;28;19954;-78
2022/02/18 04:13:13;;;;;;;;;;;11.70;99.90;;;;;;5075327;28;19908;-78
2022/02/18 04:15:39;;;;;;;;;;;11.70;99.90;;;;;;5074924;28;19912;-79
2022/02/18 04:18:05;;;;;;;;;;;11.80;99.90;;;;;;5074718;28;19927;-78
2022/02/18 04:20:31;;;;;;;;;;;11.80;99.90;;;;;;5074894;28;19916;-78
2022/02/18 04:22:56;;;;;;;;;;;11.80;99.90;;;;;;5074774;28;19909;-78
2022/02/18 04:25:22;;;;;;;;;;;11.80;99.90;;;;;;5074726;28;19908;-78
2022/02/18 04:27:52;;;;;;;;;;;11.80;99.90;;;;;;5074931;28;19919;-78
2022/02/18 04:30:17;;;;;;;;;;;11.90;99.90;;;;;;5074833;28;19987;-78
2022/02/18 04:32:43;;;;;;;;;;;11.90;99.90;;;;;;5074562;28;20005;-78
2022/02/18 04:35:11;;;;;;;;;;;11.90;99.90;;;;;;5074529;28;19915;-78
2022/02/18 04:37:37;;;;;;;;;;;11.90;99.90;;;;;;5074438;28;20392;-78
2022/02/18 04:40:03;;;;;;;;;;;12.00;99.90;;;;;;5074431;28;19909;-78
2022/02/18 04:42:28;;;;;;;;;;;12.00;99.90;;;;;;5074452;28;20408;-78
2022/02/18 04:44:54;;;;;;;;;;;12.00;99.90;;;;;;5074352;28;19912;-78
2022/02/18 04:47:19;;;;;;;;;;;12.00;99.90;;;;;;5074257;28;19916;-78
2022/02/18 04:49:45;;;;;;;;;;;12.00;99.90;;;;;;5056257;28;19931;-78
2022/02/18 04:52:12;;;;;;;;;;;11.90;99.90;;;;;;5074256;28;19915;-79
2022/02/18 04:54:37;;;;;;;;;;;11.90;99.90;;;;;;5074350;28;19912;-78
2022/02/18 04:57:03;;;;;;;;;;;11.90;99.90;;;;;;5074046;28;19999;-78
2022/02/18 04:59:28;;;;;;;;;;;11.90;99.90;;;;;;5074047;28;19916;-79
2022/02/18 05:01:54;;;;;;;;;;;11.90;99.90;;;;;;5074459;28;19915;-79
2022/02/18 05:04:20;;;;;;;;;;;11.90;99.90;;;;;;5074166;28;19912;-78
2022/02/18 05:06:45;;;;;;;;;;;12.00;99.90;;;;;;5074183;28;20246;-79
2022/02/18 05:09:11;;;;;;;;;;;12.00;99.90;;;;;;5073941;28;20000;-79
2022/02/18 05:11:36;;;;;;;;;;;12.00;99.90;;;;;;5074045;28;19908;-79
2022/02/18 05:14:02;;;;;;;;;;;12.00;99.90;;;;;;5073845;28;20372;-79
2022/02/18 05:16:28;;;;;;;;;;;12.00;99.90;;;;;;5073683;28;19932;-79
2022/02/18 05:18:55;;;;;;;;;;;12.00;99.90;;;;;;5073901;28;20427;-78
2022/02/18 05:21:22;;;;;;;;;;;12.00;99.90;;;;;;5072929;28;19965;-78
2022/02/18 05:23:48;;;;;;;;;;;12.00;99.90;;;;;;5055768;28;20384;-79
2022/02/18 05:26:13;;;;;;;;;;;11.90;99.90;;;;;;5073748;28;19908;-79
2022/02/18 05:28:39;;;;;;;;;;;11.90;99.90;;;;;;5073674;28;19913;-78
2022/02/18 05:31:04;;;;;;;;;;;11.90;99.90;;;;;;5055712;28;19909;-78
2022/02/18 05:33:30;;;;;;;;;;;11.90;99.90;;;;;;5055647;28;19935;-79
2022/02/18 05:35:56;;;;;;;;;;;11.90;99.90;;;;;;5073676;28;19946;-79
2022/02/18 05:38:21;;;;;;;;;;;11.90;99.90;;;;;;5073609;28;19916;-79
2022/02/18 05:40:47;;;;;;;;;;;12.00;99.90;;;;;;5073600;28;20343;-79
2022/02/18 05:43:12;;;;;;;;;;;12.00;99.90;;;;;;5073559;28;19999;-78
2022/02/18 05:45:38;;;;;;;;;;;12.00;99.90;;;;;;5073606;28;19908;-79
2022/02/18 05:48:04;;;;;;;;;;;12.00;99.90;;;;;;5073393;28;20376;-79
2022/02/18 05:50:29;;;;;;;;;;;12.00;99.90;;;;;;5073437;28;19915;-79
2022/02/18 05:52:55;;;;;;;;;;;11.90;99.90;;;;;;5073409;28;19995;-79
2022/02/18 05:55:21;;;;;;;;;;;11.90;99.90;;;;;;5073511;28;19908;-78
2022/02/18 05:57:46;;;;;;;;;;;12.00;99.90;;;;;;5055377;28;19985;-78
2022/02/18 06:00:13;;;;;;;;;;;12.00;99.90;;;;;;5073767;28;19909;-78
2022/02/18 06:02:39;;;;;;;;;;;12.10;99.90;;;;;;5073304;28;19908;-78
2022/02/18 06:05:05;;;;;;;;;;;12.10;99.90;;;;;;5073345;28;19908;-78
2022/02/18 06:07:30;;;;;;;;;;;12.00;99.90;;;;;;5073195;28;19966;-79
2022/02/18 06:09:56;;;;;;;;;;;12.00;99.90;;;;;;5073321;28;19909;-78
2022/02/18 06:12:22;;;;;;;;;;;12.00;99.90;;;;;;5073556;28;20067;-79
2022/02/18 06:14:50;;;;;;;;;;;12.00;99.90;;;;;;5073257;28;20490;-79
2022/02/18 06:17:17;;;;;;;;;;;12.00;99.90;;;;;;5073037;28;20301;-79
2022/02/18 06:19:42;;;;;;;;;;;12.00;99.90;;;;;;5073225;28;19916;-78
2022/02/18 06:22:08;;;;;;;;;;;12.00;99.90;;;;;;5073224;28;19909;-79
2022/02/18 06:24:33;;;;;;;;;;;12.10;99.90;;;;;;5073157;28;20356;-78
2022/02/18 06:26:59;;;;;;;;;;;12.20;99.90;;;;;;5073145;28;19920;-79
2022/02/18 06:29:25;;;;;;;;;;;12.20;99.90;;;;;;5055138;28;19912;-79
2022/02/18 06:31:50;;;;;;;;;;;12.10;99.90;;;;;;5074975;28;19920;-79
2022/02/18 06:34:16;;;;;;;;;;;12.10;99.90;;;;;;5076937;28;20415;-78
2022/02/18 06:36:42;;;;;;;;;;;12.10;99.90;;;;;;5076855;28;19909;-78
2022/02/18 06:39:09;;;;;;;;;;;12.10;99.90;;;;;;5076768;28;19909;-78
2022/02/18 06:41:34;;;;;;;;;;;12.00;99.90;;;;;;5077131;28;19909;-79
2022/02/18 06:44:00;;;;;;;;;;;11.90;99.90;;;;;;5076663;28;20414;-78
2022/02/18 06:46:26;;;;;;;;;;;11.80;99.90;;;;;;5076550;28;19908;-79
2022/02/18 06:48:51;;;;;;;;;;;11.80;99.90;;;;;;5076566;28;20395;-79
2022/02/18 06:51:17;;;;;;;;;;;11.80;99.90;;;;;;5076598;28;19913;-79
2022/02/18 06:53:43;;;;;;;;;;;11.80;99.90;;;;;;5058504;28;20380;-79
2022/02/18 06:56:08;;;;;;;;;;;11.80;99.90;;;;;;5076735;28;20007;-78
2022/02/18 06:58:34;;;;;;;;;;;11.80;99.90;;;;;;5076415;28;20008;-79
2022/02/18 07:01:00;;;;;;;;;;;11.90;99.90;;;;;;5076894;28;19912;-79
2022/02/18 07:03:26;;;;;;;;;;;11.90;99.90;;;;;;5076292;28;20410;-79
2022/02/18 07:05:51;;;;;;;;;;;11.90;99.90;;;;;;5076718;28;19908;-80
2022/02/18 07:08:17;;;;;;;;;;;11.90;99.90;;;;;;5076377;28;19912;-79
2022/02/18 07:10:43;;;;;;;;;;;11.90;99.90;;;;;;5076163;28;19916;-79
2022/02/18 07:13:09;;;;;;;;;;;11.90;99.90;;;;;;5076190;28;19915;-79
2022/02/18 07:15:35;;;;;;;;;;;11.90;99.90;;;;;;5076099;28;20414;-79
2022/02/18 07:18:02;;;;;;;;;;;11.90;99.90;;;;;;5075566;28;20368;-81
2022/02/18 07:20:27;;;;;;;;;;;11.80;99.90;;;;;;5075945;28;19909;-80
2022/02/18 07:22:53;;;;;;;;;;;11.80;99.90;;;;;;5076031;28;20327;-82
2022/02/18 07:25:20;;;;;;;;;;;11.80;99.90;;;;;;5075890;28;20368;-81
2022/02/18 07:27:46;;;;;;;;;;;11.80;99.90;;;;;;5075719;28;19912;-80
2022/02/18 07:30:11;;;;;;;;;;;11.80;99.90;;;;;;5057820;28;19908;-78
2022/02/18 07:32:37;;;;;;;;;;;11.90;99.90;;;;;;5057796;28;19909;-80
2022/02/18 07:35:03;;;;;;;;;;;11.90;99.90;;;;;;5075834;28;19909;-81
2022/02/18 07:37:29;;;;;;;;;;;11.80;99.90;;;;;;5075639;28;19913;-82
2022/02/18 07:39:54;;;;;;;;;;;11.40;99.90;;;;;;5075527;28;19908;-81
2022/02/18 07:42:20;;;;;;;;;;;10.90;99.90;;;;;;5075209;28;20291;-80
2022/02/18 07:44:45;;;;;;;;;;;10.50;99.90;;;;;;5074964;28;20017;-80
2022/02/18 07:47:11;;;;;;;;;;;10.40;99.90;;;;;;5075340;28;20262;-78
2022/02/18 07:49:37;;;;;;;;;;;10.20;99.90;;;;;;5057445;28;19985;-78
2022/02/18 07:52:03;;;;;;;;;;;10.20;99.90;;;;;;5074898;28;19974;-79
2022/02/18 07:54:29;;;;;;;;;;;10.20;99.90;;;;;;5075181;28;19916;-79
2022/02/18 07:56:54;;;;;;;;;;;10.10;99.90;;;;;;5075708;28;20276;-80
2022/02/18 07:59:20;;;;;;;;;;;10.10;99.90;;;;;;5075453;28;19962;-79
2022/02/18 08:01:46;;;;;;;;;;;10.20;99.90;;;;;;5075283;28;19908;-79
2022/02/18 08:04:11;;;;;;;;;;;10.10;99.90;;;;;;5075096;28;19909;-79
2022/02/18 08:06:37;;;;;;;;;;;10.20;99.90;;;;;;5074904;28;19916;-79
2022/02/18 08:09:03;;;;;;;;;;;10.10;99.90;;;;;;5074992;28;19995;-77
2022/02/18 08:11:29;;;;;;;;;;;10.10;99.90;;;;;;5057097;28;19999;-79
2022/02/18 08:13:54;;;;;;;;;;;10.20;99.90;;;;;;5075031;28;19996;-79
2022/02/18 08:16:20;;;;;;;;;;;10.30;99.90;;;;;;5053440;28;20419;-79
2022/02/18 08:18:45;;;;;;;;;;;10.40;99.90;;;;;;5053831;28;20392;-79
2022/02/18 08:21:12;;;;;;;;;;;10.40;99.90;;;;;;5054853;28;19908;-78
2022/02/18 08:23:38;;;;;;;;;;;10.50;99.90;;;;;;5054809;28;19991;-79
2022/02/18 08:26:04;;;;;;;;;;;10.90;99.90;;;;;;5053467;28;19909;-79
2022/02/18 08:28:29;;;;;;;;;;;11.00;99.90;;;;;;5054608;28;20509;-80
2022/02/18 08:30:55;;;;;;;;;;;11.00;99.90;;;;;;5054978;28;19909;-78
2022/02/18 08:33:21;;;;;;;;;;;10.90;99.90;;;;;;5054519;28;20365;-78
2022/02/18 08:35:46;;;;;;;;;;;10.70;99.90;;;;;;5054618;28;19909;-80
2022/02/18 08:38:12;;;;;;;;;;;10.50;99.90;;;;;;5054392;28;19931;-78
2022/02/18 08:40:38;;;;;;;;;;;10.50;99.90;;;;;;5054777;28;19911;-78
2022/02/18 08:43:03;;;;;;;;;;;10.40;99.90;;;;;;5053050;28;19988;-78
2022/02/18 08:45:30;;;;;;;;;;;10.40;99.90;;;;;;5054279;28;19908;-78
2022/02/18 08:47:56;;;;;;;;;;;10.30;99.90;;;;;;5054295;28;20369;-78
2022/02/18 08:50:21;;;;;;;;;;;10.40;99.90;;;;;;5054301;28;19916;-77
2022/02/18 08:52:47;;;;;;;;;;;10.50;99.90;;;;;;5054539;28;19913;-78
2022/02/18 08:55:14;;;;;;;;;;;10.40;99.90;;;;;;5054131;28;20370;-78
2022/02/18 08:57:40;;;;;;;;;;;10.40;99.90;;;;;;5054166;28;19909;-78
2022/02/18 09:00:07;;;;;;;;;;;10.40;99.90;;;;;;5054206;28;20381;-78
2022/02/18 09:02:36;;;;;;;;;;;10.30;99.90;;;;;;5054203;28;19912;-78
2022/02/18 09:05:02;;;;;;;;;;;10.30;99.90;;;;;;5052670;28;19916;-78
2022/02/18 09:07:28;;;;;;;;;;;10.30;99.90;;;;;;5053847;28;19913;-78
2022/02/18 09:09:56;;;;;;;;;;;10.30;99.90;;;;;;5053915;28;19970;-77
2022/02/18 09:12:22;;;;;;;;;;;10.40;99.90;;;;;;5053846;28;20395;-78
2022/02/18 09:14:47;;;;;;;;;;;10.40;99.90;;;;;;5054052;28;19908;-78
2022/02/18 09:17:13;;;;;;;;;;;10.30;99.90;;;;;;5066009;28;19928;-78
2022/02/18 09:19:39;;;;;;;;;;;10.20;99.90;;;;;;5073938;28;19908;-78
2022/02/18 09:22:05;;;;;;;;;;;10.20;99.90;;;;;;5055740;28;19995;-78
2022/02/18 09:24:31;;;;;;;;;;;10.30;99.90;;;;;;5056406;28;20364;-79
2022/02/18 09:26:56;;;;;;;;;;;10.20;99.90;;;;;;5073744;28;19962;-78
2022/02/18 09:29:22;;;;;;;;;;;10.30;99.90;;;;;;5073675;28;19909;-79
2022/02/18 09:31:47;;;;;;;;;;;10.30;99.90;;;;;;5073617;28;20003;-78
2022/02/18 09:34:13;;;;;;;;;;;10.30;99.90;;;;;;5073681;28;20361;-78
2022/02/18 09:36:39;;;;;;;;;;;10.30;99.90;;;;;;5073983;28;20361;-79
2022/02/18 09:39:05;;;;;;;;;;;10.40;99.90;;;;;;5073783;28;19966;-78
2022/02/18 09:41:31;;;;;;;;;;;10.30;99.90;;;;;;5073438;28;19909;-78
2022/02/18 09:43:59;;;;;;;;;;;10.40;99.90;;;;;;5073556;28;19981;-78
2022/02/18 09:46:25;;;;;;;;;;;10.40;99.90;;;;;;5073354;28;20333;-78
2022/02/18 09:48:51;;;;;;;;;;;10.50;99.90;;;;;;5055343;28;19920;-78
2022/02/18 09:51:18;;;;;;;;;;;10.60;99.90;;;;;;5073398;28;19909;-78
2022/02/18 09:53:44;;;;;;;;;;;10.60;99.90;;;;;;5055656;28;19916;-78
2022/02/18 09:56:10;;;;;;;;;;;10.70;99.90;;;;;;5073381;28;19913;-78
2022/02/18 09:58:36;;;;;;;;;;;10.80;99.90;;;;;;5073355;28;19908;-78
2022/02/18 10:01:02;;;;;;;;;;;11.10;99.90;;;;;;5073967;28;19915;-78
2022/02/18 10:03:28;;;;;;;;;;;11.00;99.90;;;;;;5073311;28;19915;-78
2022/02/18 10:05:54;;;;;;;;;;;11.30;99.90;;;;;;5074034;28;20420;-78
2022/02/18 10:08:22;;;;;;;;;;;11.50;99.90;;;;;;5077302;28;20373;-79
2022/02/18 10:11:03;;;;;;;;;;;11.40;99.90;;;;;;5077333;28;20398;-78
2022/02/18 10:13:31;;;;;;;;;;;11.40;99.90;;;;;;5077809;28;19916;-78
2022/02/18 10:15:58;;;;;;;;;;;11.50;99.90;;;;;;5077145;28;19909;-78
2022/02/18 10:18:24;;;;;;;;;;;11.40;99.90;;;;;;5077244;28;20288;-78
2022/02/18 10:20:49;;;;;;;;;;;11.60;99.90;;;;;;5077223;28;19932;-79
2022/02/18 10:23:17;;;;;;;;;;;11.80;99.90;;;;;;5077086;28;20364;-78
2022/02/18 10:25:45;;;;;;;;;;;11.90;99.90;;;;;;5059047;28;19966;-78
2022/02/18 10:28:11;;;;;;;;;;;11.80;99.90;;;;;;5076894;28;19965;-78
2022/02/18 10:30:38;;;;;;;;;;;11.80;99.90;;;;;;5076829;28;19909;-81
2022/02/18 10:33:11;;;;;;;;;;;11.80;99.90;;;;;;5076983;28;19908;-81
2022/02/18 10:35:37;;;;;;;;;;;11.50;99.90;;;;;;5077070;28;20001;-81
2022/02/18 10:38:03;;;;;;;;;;;11.40;99.90;;;;;;5058770;28;19909;-82
2022/02/18 10:40:29;;;;;;;;;;;11.40;99.90;;;;;;5058911;28;19978;-82
2022/02/18 10:43:05;;;;;;;;;;;11.40;99.90;;;;;;5076790;28;19913;-81
2022/02/18 10:45:31;;;;;;;;;;;11.40;99.90;;;;;;5077298;28;19912;-83
2022/02/18 10:48:19;;;;;;;;;;;11.70;99.90;;;;;;5076623;28;20368;-81
2022/02/18 10:51:01;;;;;;;;;;;12.10;99.90;;;;;;5076723;28;19915;-81
2022/02/18 10:53:33;;;;;;;;;;;12.70;99.90;;;;;;5076735;28;19908;-81
2022/02/18 10:56:01;;;;;;;;;;;12.90;99.90;;;;;;5076470;28;19908;-81
2022/02/18 10:58:32;;;;;;;;;;;13.10;99.90;;;;;;5076575;28;19951;-81
2022/02/18 11:01:01;;;;;;;;;;;12.70;99.90;;;;;;5076396;28;19914;-81
2022/02/18 11:03:27;;;;;;;;;;;12.90;99.90;;;;;;5076244;28;19943;-81
2022/02/18 11:05:52;;;;;;;;;;;12.60;99.90;;;;;;5076300;28;19944;-81
2022/02/18 11:08:28;;;;;;;;;;;12.20;99.90;;;;;;5076138;28;20277;-81
2022/02/18 11:10:55;;;;;;;;;;;11.50;99.90;;;;;;5076092;28;20309;-81
2022/02/18 11:13:21;;;;;;;;;;;11.50;99.90;;;;;;5076342;28;20007;-81
2022/02/18 11:15:47;;;;;;;;;;;11.60;99.90;;;;;;5075923;28;19948;-80
2022/02/18 11:18:13;;;;;;;;;;;11.90;99.90;;;;;;5074817;28;19912;-81
2022/02/18 11:20:38;;;;;;;;;;;12.10;99.90;;;;;;5076344;28;19966;-81
2022/02/18 11:23:06;;;;;;;;;;;12.70;99.90;;;;;;5076254;28;20311;-81
2022/02/18 11:25:32;;;;;;;;;;;12.20;99.90;;;;;;5075941;28;19909;-81
2022/02/18 11:27:58;;;;;;;;;;;12.20;99.90;;;;;;5076395;28;20011;-81
2022/02/18 11:30:23;;;;;;;;;;;12.20;99.90;;;;;;5075813;28;19915;-81
2022/02/18 11:32:49;;;;;;;;;;;12.20;99.90;;;;;;5076073;28;20310;-81
2022/02/18 11:35:17;;;;;;;;;;;12.10;99.90;;;;;;5075716;28;19908;-81
2022/02/18 11:38:01;;;;;;;;;;;12.50;99.90;;;;;;5075999;28;19908;-81
2022/02/18 11:40:30;;;;;;;;;;;12.80;98.40;;;;;;5075623;28;20377;-81
2022/02/18 11:43:23;;;;;;;;;;;12.40;99.10;;;;;;5075608;28;19912;-81
2022/02/18 11:45:52;;;;;;;;;;;12.30;98.80;;;;;;5071910;28;20054;-81
2022/02/18 11:48:37;;;;;;;;;;;12.40;97.90;;;;;;5075404;28;19959;-80
2022/02/18 11:51:08;;;;;;;;;;;12.30;98.10;;;;;;5057482;28;19912;-81
2022/02/18 11:53:41;;;;;;;;;;;12.90;98.10;;;;;;5075672;28;19955;-81
2022/02/18 11:56:07;;;;;;;;;;;15.20;95.30;;;;;;5075392;28;20316;-81
2022/02/18 11:58:49;;;;;;;;;;;16.70;89.40;;;;;;5057356;28;19915;-81
2022/02/18 12:01:15;;;;;;;;;;;15.90;90.10;;;;;;5049277;28;19913;-81
2022/02/18 12:03:41;;;;;;;;;;;16.50;86.90;;;;;;5031102;28;19920;-81
2022/02/18 12:06:13;;;;;;;;;;;16.20;86.30;;;;;;5051098;28;19909;-80
2022/02/18 12:08:45;;;;;;;;;;;15.10;90.10;;;;;;5054667;28;20364;-81
2022/02/18 12:11:15;;;;;;;;;;;14.50;91.20;;;;;;5052615;28;19913;-81
2022/02/18 12:13:54;;;;;;;;;;;16.70;88.60;;;;;;5054771;28;19920;-80
2022/02/18 12:16:21;;;;;;;;;;;17.60;85.60;;;;;;5037187;28;20393;-81
2022/02/18 12:19:01;;;;;;;;;;;17.60;84.90;;;;;;5043710;28;19913;-81
2022/02/18 12:21:27;;;;;;;;;;;16.30;84.30;;;;;;5043761;28;19909;-81
2022/02/18 12:23:53;;;;;;;;;;;16.00;85.00;;;;;;5043302;28;19962;-81
2022/02/18 12:26:25;;;;;;;;;;;14.80;86.40;;;;;;5033796;28;19916;-81
2022/02/18 12:28:51;;;;;;;;;;;14.90;88.40;;;;;;5042160;28;20385;-80
2022/02/18 12:31:17;;;;;;;;;;;14.10;90.00;;;;;;5044693;28;20014;-81
2022/02/18 12:33:44;;;;;;;;;;;17.50;86.00;;;;;;5044412;28;19974;-81
2022/02/18 12:36:12;;;;;;;;;;;20.50;75.40;;;;;;5034667;28;19916;-81
2022/02/18 12:38:41;;;;;;;;;;;20.10;73.30;;;;;;5034679;28;19909;-81
2022/02/18 12:41:33;;;;;;;;;;;20.70;71.10;;;;;;5034630;28;19916;-81
2022/02/18 12:43:59;;;;;;;;;;;17.50;72.20;;;;;;5031657;28;19963;-81
2022/02/18 12:46:24;;;;;;;;;;;17.50;74.00;;;;;;5034667;28;20323;-81
2022/02/18 12:48:51;;;;;;;;;;;16.40;75.40;;;;;;5034380;28;19917;-81
2022/02/18 12:51:22;;;;;;;;;;;15.50;78.70;;;;;;5035039;28;20269;-81
2022/02/18 12:53:48;;;;;;;;;;;17.20;79.50;;;;;;5034551;28;19910;-81
2022/02/18 12:56:18;;;;;;;;;;;19.50;72.50;;;;;;5034486;28;19909;-81
2022/02/18 12:58:54;;;;;;;;;;;19.70;66.70;;;;;;5032982;28;20288;-81
2022/02/18 13:01:20;;;;;;;;;;;22.00;66.00;;;;;;5034636;28;19916;-81
2022/02/18 13:03:46;;;;;;;;;;;18.00;66.70;;;;;;5034286;28;19915;-81
2022/02/18 13:06:11;;;;;;;;;;;17.30;68.20;;;;;;5034284;28;20355;-81
2022/02/18 13:08:37;;;;;;;;;;;17.20;70.60;;;;;;5034069;28;19920;-81
2022/02/18 13:11:21;;;;;;;;;;;21.10;66.40;;;;;;5034458;28;20388;-81
2022/02/18 13:13:48;;;;;;;;;;;22.60;62.70;;;;;;5034231;28;19916;-81
2022/02/18 13:16:17;;;;;;;;;;;21.80;60.10;;;;;;5037764;28;19916;-81
2022/02/18 13:18:43;;;;;;;;;;;22.40;58.60;;;;;;5054208;28;20004;-81
2022/02/18 13:21:09;;;;;;;;;;;21.60;58.30;;;;;;5053882;28;19951;-81
2022/02/18 13:23:36;;;;;;;;;;;20.80;55.50;;;;;;5035769;28;21120;-81
2022/02/18 13:26:02;;;;;;;;;;;22.10;56.60;;;;;;5054039;28;19991;-81
2022/02/18 13:28:40;;;;;;;;;;;20.30;56.80;;;;;;5053697;28;19919;-81
2022/02/18 13:31:06;;;;;;;;;;;20.90;56.60;;;;;;5035520;28;19912;-81
2022/02/18 13:33:32;;;;;;;;;;;20.70;58.10;;;;;;5053671;28;20289;-82
2022/02/18 13:35:59;;;;;;;;;;;21.20;56.50;;;;;;5053675;28;19916;-81
2022/02/18 13:38:32;;;;;;;;;;;22.40;57.20;;;;;;5035753;28;19909;-81
2022/02/18 13:41:07;;;;;;;;;;;22.40;55.60;;;;;;5034974;28;19912;-81
2022/02/18 13:43:37;;;;;;;;;;;21.80;53.20;;;;;;5053592;28;20323;-81
2022/02/18 13:46:04;;;;;;;;;;;21.00;53.60;;;;;;5053536;28;19916;-81
2022/02/18 13:48:30;;;;;;;;;;;22.40;53.60;;;;;;5035549;28;20011;-81
2022/02/18 13:50:56;;;;;;;;;;;23.90;51.60;;;;;;5053479;28;19967;-81
2022/02/18 13:53:22;;;;;;;;;;;21.10;51.00;;;;;;5053850;28;19909;-81
2022/02/18 13:55:47;;;;;;;;;;;21.00;52.80;;;;;;5035539;28;19909;-81
2022/02/18 13:58:23;;;;;;;;;;;23.40;51.60;;;;;;5053442;28;19936;-81
2022/02/18 14:00:49;;;;;;;;;;;23.30;51.10;;;;;;5053702;28;20349;-81
2022/02/18 14:03:18;;;;;;;;;;;24.20;50.10;;;;;;5053467;28;19916;-81
2022/02/18 14:05:47;;;;;;;;;;;25.30;49.20;;;;;;5053327;28;19908;-82
2022/02/18 14:08:22;;;;;;;;;;;26.00;48.10;;;;;;5053331;28;19912;-81
2022/02/18 14:10:50;;;;;;;;;;;26.00;47.50;;;;;;5053609;28;19909;-81
2022/02/18 14:13:34;;;;;;;;;;;27.70;47.10;;;;;;5053595;28;19908;-81